sensor_id;sensor_type;location;lat;lon;timestamp;pressure;altitude;pressure_sealevel;temperature;humidity
69127;BME280;56688;50.234;19.292;2022-10-16T00:01:16;98711.02;;;12.73;74.51
69127;BME280;56688;50.234;19.292;2022-10-16T00:03:44;98718.70;;;12.68;74.85
69127;BME280;56688;50.234;19.292;2022-10-16T00:06:12;98726.34;;;12.65;74.87
69127;BME280;56688;50.234;19.292;2022-10-16T00:08:40;98729.50;;;12.62;75.43
69127;BME280;56688;50.234;19.292;2022-10-16T00:11:10;98728.46;;;12.62;75.83
69127;BME280;56688;50.234;19.292;2022-10-16T00:13:39;98726.61;;;12.63;75.82
69127;BME280;56688;50.234;19.292;2022-10-16T00:16:08;98728.47;;;12.62;75.70
69127;BME280;56688;50.234;19.292;2022-10-16T00:18:35;98734.16;;;12.61;75.81
69127;BME280;56688;50.234;19.292;2022-10-16T00:21:06;98734.32;;;12.60;75.95
69127;BME280;56688;50.234;19.292;2022-10-16T00:23:34;98736.77;;;12.57;75.97
69127;BME280;56688;50.234;19.292;2022-10-16T00:26:04;98737.28;;;12.56;76.24
69127;BME280;56688;50.234;19.292;2022-10-16T00:28:32;98736.05;;;12.53;76.27
69127;BME280;56688;50.234;19.292;2022-10-16T00:31:03;98736.40;;;12.52;76.62
69127;BME280;56688;50.234;19.292;2022-10-16T00:33:31;98739.13;;;12.53;76.70
69127;BME280;56688;50.234;19.292;2022-10-16T00:35:59;98739.46;;;12.54;76.77
69127;BME280;56688;50.234;19.292;2022-10-16T00:38:25;98738.92;;;12.56;76.67
69127;BME280;56688;50.234;19.292;2022-10-16T00:40:53;98743.48;;;12.57;76.65
69127;BME280;56688;50.234;19.292;2022-10-16T00:43:37;98743.27;;;12.56;76.39
69127;BME280;56688;50.234;19.292;2022-10-16T00:48:38;98734.19;;;12.49;76.55
69127;BME280;56688;50.234;19.292;2022-10-16T00:51:07;98734.55;;;12.48;76.54
69127;BME280;56688;50.234;19.292;2022-10-16T00:53:35;98740.52;;;12.47;76.79
69127;BME280;56688;50.234;19.292;2022-10-16T00:56:02;98738.09;;;12.47;76.67
69127;BME280;56688;50.234;19.292;2022-10-16T00:58:29;98740.73;;;12.46;76.80
69127;BME280;56688;50.234;19.292;2022-10-16T01:00:56;98742.23;;;12.43;76.84
69127;BME280;56688;50.234;19.292;2022-10-16T01:03:32;98747.09;;;12.39;76.98
69127;BME280;56688;50.234;19.292;2022-10-16T01:06:15;98746.26;;;12.36;76.90
69127;BME280;56688;50.234;19.292;2022-10-16T01:14:06;98747.85;;;12.31;77.46
69127;BME280;56688;50.234;19.292;2022-10-16T01:16:48;98752.48;;;12.34;77.63
69127;BME280;56688;50.234;19.292;2022-10-16T01:19:35;98756.41;;;12.36;77.51
69127;BME280;56688;50.234;19.292;2022-10-16T01:22:09;98760.98;;;12.39;77.37
69127;BME280;56688;50.234;19.292;2022-10-16T01:24:39;98764.27;;;12.42;77.41
69127;BME280;56688;50.234;19.292;2022-10-16T01:27:17;98760.58;;;12.43;77.49
69127;BME280;56688;50.234;19.292;2022-10-16T01:29:50;98754.36;;;12.41;77.39
69127;BME280;56688;50.234;19.292;2022-10-16T01:35:03;98758.40;;;12.35;77.48
69127;BME280;56688;50.234;19.292;2022-10-16T01:37:39;98757.84;;;12.33;77.78
69127;BME280;56688;50.234;19.292;2022-10-16T01:40:11;98755.76;;;12.34;77.86
69127;BME280;56688;50.234;19.292;2022-10-16T01:42:42;98749.30;;;12.33;77.82
69127;BME280;56688;50.234;19.292;2022-10-16T01:45:13;98752.80;;;12.35;77.90
69127;BME280;56688;50.234;19.292;2022-10-16T01:47:41;98748.86;;;12.33;77.96
69127;BME280;56688;50.234;19.292;2022-10-16T01:50:12;98752.53;;;12.28;78.09
69127;BME280;56688;50.234;19.292;2022-10-16T01:52:43;98752.74;;;12.24;78.25
69127;BME280;56688;50.234;19.292;2022-10-16T01:55:16;98752.81;;;12.18;78.39
69127;BME280;56688;50.234;19.292;2022-10-16T01:57:46;98755.11;;;12.17;78.35
69127;BME280;56688;50.234;19.292;2022-10-16T02:00:17;98755.84;;;12.16;78.44
69127;BME280;56688;50.234;19.292;2022-10-16T02:02:49;98757.36;;;12.14;78.25
69127;BME280;56688;50.234;19.292;2022-10-16T02:05:26;98761.70;;;12.11;78.25
69127;BME280;56688;50.234;19.292;2022-10-16T02:07:55;98761.20;;;12.07;78.37
69127;BME280;56688;50.234;19.292;2022-10-16T02:10:26;98759.34;;;11.99;78.61
69127;BME280;56688;50.234;19.292;2022-10-16T02:13:04;98762.09;;;11.94;78.84
69127;BME280;56688;50.234;19.292;2022-10-16T02:15:32;98763.08;;;11.89;79.07
69127;BME280;56688;50.234;19.292;2022-10-16T02:17:59;98761.15;;;11.86;79.28
69127;BME280;56688;50.234;19.292;2022-10-16T02:20:29;98765.71;;;11.85;79.28
69127;BME280;56688;50.234;19.292;2022-10-16T02:23:00;98770.44;;;11.84;79.29
69127;BME280;56688;50.234;19.292;2022-10-16T02:25:35;98775.01;;;11.83;79.52
69127;BME280;56688;50.234;19.292;2022-10-16T02:28:09;98776.81;;;11.82;79.70
69127;BME280;56688;50.234;19.292;2022-10-16T02:30:43;98778.64;;;11.80;79.60
69127;BME280;56688;50.234;19.292;2022-10-16T02:33:12;98780.92;;;11.79;79.63
69127;BME280;56688;50.234;19.292;2022-10-16T02:35:41;98781.84;;;11.79;80.07
69127;BME280;56688;50.234;19.292;2022-10-16T02:38:11;98777.55;;;11.79;79.81
69127;BME280;56688;50.234;19.292;2022-10-16T02:40:42;98777.70;;;11.80;79.70
69127;BME280;56688;50.234;19.292;2022-10-16T02:43:09;98779.58;;;11.82;79.60
69127;BME280;56688;50.234;19.292;2022-10-16T02:45:36;98779.70;;;11.83;78.94
69127;BME280;56688;50.234;19.292;2022-10-16T02:48:04;98775.63;;;11.81;78.76
69127;BME280;56688;50.234;19.292;2022-10-16T02:50:31;98775.64;;;11.77;78.26
69127;BME280;56688;50.234;19.292;2022-10-16T02:52:58;98773.61;;;11.68;78.03
69127;BME280;56688;50.234;19.292;2022-10-16T02:55:25;98774.02;;;11.61;77.89
69127;BME280;56688;50.234;19.292;2022-10-16T02:57:52;98769.43;;;11.53;77.80
69127;BME280;56688;50.234;19.292;2022-10-16T03:00:20;98768.54;;;11.43;77.33
69127;BME280;56688;50.234;19.292;2022-10-16T03:02:46;98772.86;;;11.31;77.34
69127;BME280;56688;50.234;19.292;2022-10-16T03:05:14;98781.86;;;11.20;78.07
69127;BME280;56688;50.234;19.292;2022-10-16T03:07:41;98781.66;;;11.11;78.04
69127;BME280;56688;50.234;19.292;2022-10-16T03:10:08;98780.70;;;11.01;77.65
69127;BME280;56688;50.234;19.292;2022-10-16T03:12:35;98784.52;;;10.92;77.83
69127;BME280;56688;50.234;19.292;2022-10-16T03:15:03;98793.23;;;10.83;78.13
69127;BME280;56688;50.234;19.292;2022-10-16T03:17:31;98794.98;;;10.78;78.44
69127;BME280;56688;50.234;19.292;2022-10-16T03:19:58;98799.64;;;10.65;78.27
69127;BME280;56688;50.234;19.292;2022-10-16T03:22:25;98801.96;;;10.41;78.67
69127;BME280;56688;50.234;19.292;2022-10-16T03:24:52;98805.92;;;10.19;78.96
69127;BME280;56688;50.234;19.292;2022-10-16T03:27:19;98811.53;;;9.98;79.44
69127;BME280;56688;50.234;19.292;2022-10-16T03:29:45;98810.52;;;9.81;80.46
69127;BME280;56688;50.234;19.292;2022-10-16T03:32:12;98809.41;;;9.75;80.75
69127;BME280;56688;50.234;19.292;2022-10-16T03:34:39;98809.81;;;9.75;80.70
69127;BME280;56688;50.234;19.292;2022-10-16T03:37:06;98811.08;;;9.73;80.13
69127;BME280;56688;50.234;19.292;2022-10-16T03:39:33;98816.43;;;9.64;79.69
69127;BME280;56688;50.234;19.292;2022-10-16T03:42:00;98815.95;;;9.52;79.73
69127;BME280;56688;50.234;19.292;2022-10-16T03:44:26;98820.05;;;9.38;79.89
69127;BME280;56688;50.234;19.292;2022-10-16T03:46:53;98817.69;;;9.27;79.93
69127;BME280;56688;50.234;19.292;2022-10-16T03:49:20;98819.73;;;9.22;80.17
69127;BME280;56688;50.234;19.292;2022-10-16T03:51:47;98817.45;;;9.17;80.54
69127;BME280;56688;50.234;19.292;2022-10-16T03:54:14;98823.53;;;9.12;81.18
69127;BME280;56688;50.234;19.292;2022-10-16T03:56:40;98828.63;;;9.10;81.84
69127;BME280;56688;50.234;19.292;2022-10-16T03:59:07;98832.13;;;9.11;82.30
69127;BME280;56688;50.234;19.292;2022-10-16T04:01:34;98831.15;;;9.02;82.41
69127;BME280;56688;50.234;19.292;2022-10-16T04:04:01;98830.11;;;8.98;82.88
69127;BME280;56688;50.234;19.292;2022-10-16T04:06:28;98830.20;;;8.98;82.50
69127;BME280;56688;50.234;19.292;2022-10-16T04:08:54;98829.83;;;8.97;81.71
69127;BME280;56688;50.234;19.292;2022-10-16T04:11:21;98831.67;;;8.93;81.17
69127;BME280;56688;50.234;19.292;2022-10-16T04:13:48;98828.83;;;8.90;81.22
69127;BME280;56688;50.234;19.292;2022-10-16T04:16:15;98825.05;;;8.88;81.41
69127;BME280;56688;50.234;19.292;2022-10-16T04:18:42;98823.95;;;8.89;81.38
69127;BME280;56688;50.234;19.292;2022-10-16T04:21:09;98824.29;;;8.89;81.55
69127;BME280;56688;50.234;19.292;2022-10-16T04:23:35;98828.45;;;8.90;81.90
69127;BME280;56688;50.234;19.292;2022-10-16T04:26:02;98832.02;;;8.88;82.53
69127;BME280;56688;50.234;19.292;2022-10-16T04:28:29;98837.39;;;8.81;82.69
69127;BME280;56688;50.234;19.292;2022-10-16T04:30:57;98834.77;;;8.75;82.99
69127;BME280;56688;50.234;19.292;2022-10-16T04:33:23;98840.16;;;8.66;83.51
69127;BME280;56688;50.234;19.292;2022-10-16T04:35:58;98841.89;;;8.65;84.40
69127;BME280;56688;50.234;19.292;2022-10-16T04:38:26;98842.80;;;8.66;84.53
69127;BME280;56688;50.234;19.292;2022-10-16T04:40:53;98843.47;;;8.68;84.15
69127;BME280;56688;50.234;19.292;2022-10-16T04:43:20;98841.10;;;8.69;83.48
69127;BME280;56688;50.234;19.292;2022-10-16T04:45:47;98835.68;;;8.68;83.02
69127;BME280;56688;50.234;19.292;2022-10-16T04:48:14;98835.60;;;8.65;82.87
69127;BME280;56688;50.234;19.292;2022-10-16T04:50:40;98836.91;;;8.61;82.73
69127;BME280;56688;50.234;19.292;2022-10-16T04:53:07;98837.52;;;8.54;82.99
69127;BME280;56688;50.234;19.292;2022-10-16T04:55:34;98833.50;;;8.52;83.51
69127;BME280;56688;50.234;19.292;2022-10-16T04:58:01;98832.32;;;8.53;84.27
69127;BME280;56688;50.234;19.292;2022-10-16T05:00:28;98833.21;;;8.56;84.73
69127;BME280;56688;50.234;19.292;2022-10-16T05:02:55;98839.51;;;8.60;84.98
69127;BME280;56688;50.234;19.292;2022-10-16T05:05:22;98843.16;;;8.63;85.16
69127;BME280;56688;50.234;19.292;2022-10-16T05:07:49;98848.36;;;8.57;85.06
69127;BME280;56688;50.234;19.292;2022-10-16T05:10:16;98846.80;;;8.54;85.22
69127;BME280;56688;50.234;19.292;2022-10-16T05:12:43;98843.39;;;8.48;85.24
69127;BME280;56688;50.234;19.292;2022-10-16T05:15:10;98846.56;;;8.49;85.22
69127;BME280;56688;50.234;19.292;2022-10-16T05:17:38;98847.54;;;8.54;84.91
69127;BME280;56688;50.234;19.292;2022-10-16T05:20:10;98849.80;;;8.60;84.92
69127;BME280;56688;50.234;19.292;2022-10-16T05:22:37;98850.85;;;8.62;84.14
69127;BME280;56688;50.234;19.292;2022-10-16T05:25:05;98850.76;;;8.52;83.64
69127;BME280;56688;50.234;19.292;2022-10-16T05:27:31;98851.42;;;8.47;83.62
69127;BME280;56688;50.234;19.292;2022-10-16T05:29:58;98859.52;;;8.48;83.54
69127;BME280;56688;50.234;19.292;2022-10-16T05:32:25;98864.77;;;8.49;84.17
69127;BME280;56688;50.234;19.292;2022-10-16T05:34:52;98870.00;;;8.54;84.47
69127;BME280;56688;50.234;19.292;2022-10-16T05:37:18;98867.14;;;8.63;84.45
69127;BME280;56688;50.234;19.292;2022-10-16T05:39:45;98866.87;;;8.70;84.01
69127;BME280;56688;50.234;19.292;2022-10-16T05:42:12;98871.30;;;8.78;83.58
69127;BME280;56688;50.234;19.292;2022-10-16T05:44:39;98871.09;;;8.82;82.89
69127;BME280;56688;50.234;19.292;2022-10-16T05:47:05;98870.96;;;8.83;82.65
69127;BME280;56688;50.234;19.292;2022-10-16T05:49:32;98882.29;;;8.82;82.69
69127;BME280;56688;50.234;19.292;2022-10-16T05:52:06;98884.57;;;8.79;82.93
69127;BME280;56688;50.234;19.292;2022-10-16T05:54:33;98890.91;;;8.84;83.43
69127;BME280;56688;50.234;19.292;2022-10-16T05:56:59;98892.43;;;8.95;83.67
69127;BME280;56688;50.234;19.292;2022-10-16T05:59:26;98895.31;;;9.07;83.72
69127;BME280;56688;50.234;19.292;2022-10-16T06:01:53;98900.50;;;9.12;83.20
69127;BME280;56688;50.234;19.292;2022-10-16T06:04:20;98906.84;;;9.07;83.04
69127;BME280;56688;50.234;19.292;2022-10-16T06:06:46;98908.88;;;9.03;83.54
69127;BME280;56688;50.234;19.292;2022-10-16T06:09:13;98915.64;;;9.05;84.14
69127;BME280;56688;50.234;19.292;2022-10-16T06:11:40;98919.98;;;9.17;84.64
69127;BME280;56688;50.234;19.292;2022-10-16T06:14:08;98925.02;;;9.36;84.90
69127;BME280;56688;50.234;19.292;2022-10-16T06:16:37;98923.29;;;9.58;85.07
69127;BME280;56688;50.234;19.292;2022-10-16T06:19:04;98922.39;;;9.80;84.85
69127;BME280;56688;50.234;19.292;2022-10-16T06:21:33;98925.42;;;9.95;84.55
69127;BME280;56688;50.234;19.292;2022-10-16T06:24:00;98929.08;;;10.04;83.89
69127;BME280;56688;50.234;19.292;2022-10-16T06:26:29;98927.70;;;10.08;84.15
69127;BME280;56688;50.234;19.292;2022-10-16T06:28:58;98931.58;;;10.29;84.91
69127;BME280;56688;50.234;19.292;2022-10-16T06:31:27;98935.48;;;10.62;85.26
69127;BME280;56688;50.234;19.292;2022-10-16T06:33:57;98943.03;;;10.97;84.79
69127;BME280;56688;50.234;19.292;2022-10-16T06:36:25;98947.30;;;11.32;83.97
69127;BME280;56688;50.234;19.292;2022-10-16T06:38:52;98950.55;;;11.65;82.96
69127;BME280;56688;50.234;19.292;2022-10-16T06:41:21;98949.95;;;11.80;81.11
69127;BME280;56688;50.234;19.292;2022-10-16T06:43:49;98949.58;;;11.79;80.40
69127;BME280;56688;50.234;19.292;2022-10-16T06:46:18;98953.71;;;11.77;80.35
69127;BME280;56688;50.234;19.292;2022-10-16T06:48:45;98954.34;;;11.79;80.82
69127;BME280;56688;50.234;19.292;2022-10-16T06:51:16;98956.09;;;11.94;81.21
69127;BME280;56688;50.234;19.292;2022-10-16T06:53:45;98961.10;;;12.22;81.20
69127;BME280;56688;50.234;19.292;2022-10-16T06:56:28;98956.39;;;12.61;80.33
69127;BME280;56688;50.234;19.292;2022-10-16T06:58:58;98963.02;;;13.02;79.44
69127;BME280;56688;50.234;19.292;2022-10-16T07:01:26;98963.81;;;13.38;78.59
69127;BME280;56688;50.234;19.292;2022-10-16T07:03:53;98962.59;;;13.76;77.58
69127;BME280;56688;50.234;19.292;2022-10-16T07:06:22;98960.45;;;14.11;75.87
69127;BME280;56688;50.234;19.292;2022-10-16T07:08:49;98959.20;;;14.42;74.76
69127;BME280;56688;50.234;19.292;2022-10-16T07:11:19;98961.29;;;14.79;73.50
69127;BME280;56688;50.234;19.292;2022-10-16T07:13:47;98962.55;;;15.26;72.71
69127;BME280;56688;50.234;19.292;2022-10-16T07:16:24;98965.13;;;15.82;70.73
69127;BME280;56688;50.234;19.292;2022-10-16T07:18:51;98956.38;;;16.41;67.70
69127;BME280;56688;50.234;19.292;2022-10-16T07:21:26;98955.67;;;17.07;65.75
69127;BME280;56688;50.234;19.292;2022-10-16T07:23:58;98958.63;;;17.77;63.15
69127;BME280;56688;50.234;19.292;2022-10-16T07:26:27;98953.65;;;18.42;61.16
69127;BME280;56688;50.234;19.292;2022-10-16T07:28:54;98951.97;;;19.06;58.76
69127;BME280;56688;50.234;19.292;2022-10-16T07:31:21;98958.77;;;19.72;57.20
69127;BME280;56688;50.234;19.292;2022-10-16T07:33:49;98956.17;;;20.39;55.09
69127;BME280;56688;50.234;19.292;2022-10-16T07:36:18;98948.84;;;20.98;52.92
69127;BME280;56688;50.234;19.292;2022-10-16T07:38:46;98950.52;;;21.55;51.37
69127;BME280;56688;50.234;19.292;2022-10-16T07:41:16;98950.27;;;21.98;49.84
69127;BME280;56688;50.234;19.292;2022-10-16T07:43:48;98957.34;;;22.20;49.20
69127;BME280;56688;50.234;19.292;2022-10-16T07:46:16;98960.52;;;22.22;48.63
69127;BME280;56688;50.234;19.292;2022-10-16T07:48:44;98963.89;;;22.17;48.41
69127;BME280;56688;50.234;19.292;2022-10-16T07:51:16;98966.33;;;22.25;47.64
69127;BME280;56688;50.234;19.292;2022-10-16T07:53:43;98967.02;;;22.28;47.14
69127;BME280;56688;50.234;19.292;2022-10-16T07:56:10;98965.31;;;22.39;46.77
69127;BME280;56688;50.234;19.292;2022-10-16T07:58:38;98960.94;;;22.51;45.47
69127;BME280;56688;50.234;19.292;2022-10-16T08:01:07;98963.11;;;22.55;45.28
69127;BME280;56688;50.234;19.292;2022-10-16T08:03:35;98963.82;;;22.75;45.80
69127;BME280;56688;50.234;19.292;2022-10-16T08:06:03;98969.14;;;23.02;44.19
69127;BME280;56688;50.234;19.292;2022-10-16T08:08:30;98961.48;;;23.16;43.87
69127;BME280;56688;50.234;19.292;2022-10-16T08:10:57;98967.21;;;23.30;43.40
69127;BME280;56688;50.234;19.292;2022-10-16T08:13:24;98967.61;;;23.38;42.51
69127;BME280;56688;50.234;19.292;2022-10-16T08:15:53;98971.02;;;23.40;43.31
69127;BME280;56688;50.234;19.292;2022-10-16T08:18:21;98970.48;;;23.41;43.36
69127;BME280;56688;50.234;19.292;2022-10-16T08:20:55;98969.68;;;23.26;43.54
69127;BME280;56688;50.234;19.292;2022-10-16T08:23:23;98978.64;;;22.93;43.29
69127;BME280;56688;50.234;19.292;2022-10-16T08:25:53;98980.34;;;22.44;44.04
69127;BME280;56688;50.234;19.292;2022-10-16T08:28:20;98977.55;;;22.09;45.29
69127;BME280;56688;50.234;19.292;2022-10-16T08:30:47;98980.36;;;21.83;46.15
69127;BME280;56688;50.234;19.292;2022-10-16T08:33:15;98980.95;;;21.71;46.63
69127;BME280;56688;50.234;19.292;2022-10-16T08:35:41;98978.12;;;21.57;47.05
69127;BME280;56688;50.234;19.292;2022-10-16T08:38:08;98980.38;;;21.66;48.24
69127;BME280;56688;50.234;19.292;2022-10-16T08:40:36;98986.61;;;22.00;47.09
69127;BME280;56688;50.234;19.292;2022-10-16T08:48:20;98993.84;;;22.39;46.33
69127;BME280;56688;50.234;19.292;2022-10-16T08:50:51;98994.95;;;22.49;45.66
69127;BME280;56688;50.234;19.292;2022-10-16T08:53:50;98998.38;;;22.48;46.00
69127;BME280;56688;50.234;19.292;2022-10-16T08:56:19;98990.08;;;22.65;45.78
69127;BME280;56688;50.234;19.292;2022-10-16T08:58:47;98991.32;;;22.69;44.40
69127;BME280;56688;50.234;19.292;2022-10-16T09:01:17;98987.00;;;22.68;45.49
69127;BME280;56688;50.234;19.292;2022-10-16T09:06:39;98985.04;;;22.72;44.76
69127;BME280;56688;50.234;19.292;2022-10-16T09:09:38;98986.42;;;22.60;44.70
69127;BME280;56688;50.234;19.292;2022-10-16T09:12:24;98991.10;;;22.45;45.68
69127;BME280;56688;50.234;19.292;2022-10-16T09:15:02;98989.33;;;22.26;45.14
69127;BME280;56688;50.234;19.292;2022-10-16T09:20:26;98992.98;;;21.91;47.18
69127;BME280;56688;50.234;19.292;2022-10-16T09:23:10;99000.00;;;21.72;46.78
69127;BME280;56688;50.234;19.292;2022-10-16T09:25:42;99000.79;;;21.46;47.86
69127;BME280;56688;50.234;19.292;2022-10-16T09:28:10;99000.54;;;21.32;47.55
69127;BME280;56688;50.234;19.292;2022-10-16T09:30:37;98997.26;;;21.25;48.33
69127;BME280;56688;50.234;19.292;2022-10-16T09:33:07;99001.15;;;21.27;48.60
69127;BME280;56688;50.234;19.292;2022-10-16T09:35:37;99001.06;;;21.31;48.24
69127;BME280;56688;50.234;19.292;2022-10-16T09:38:06;99000.67;;;21.30;47.61
69127;BME280;56688;50.234;19.292;2022-10-16T09:43:12;99003.47;;;21.28;48.70
69127;BME280;56688;50.234;19.292;2022-10-16T09:45:41;99003.04;;;21.29;48.19
69127;BME280;56688;50.234;19.292;2022-10-16T09:48:12;99003.23;;;21.30;48.88
69127;BME280;56688;50.234;19.292;2022-10-16T09:50:39;99005.48;;;21.34;48.29
69127;BME280;56688;50.234;19.292;2022-10-16T09:53:11;99007.89;;;21.39;48.59
69127;BME280;56688;50.234;19.292;2022-10-16T09:55:55;99012.13;;;21.52;49.30
69127;BME280;56688;50.234;19.292;2022-10-16T09:58:22;99015.02;;;21.73;49.42
69127;BME280;56688;50.234;19.292;2022-10-16T10:00:53;99017.83;;;21.90;48.23
69127;BME280;56688;50.234;19.292;2022-10-16T10:03:37;99014.23;;;21.92;46.94
69127;BME280;56688;50.234;19.292;2022-10-16T10:06:15;99016.48;;;21.83;47.31
69127;BME280;56688;50.234;19.292;2022-10-16T10:09:00;99018.56;;;21.84;47.79
69127;BME280;56688;50.234;19.292;2022-10-16T10:11:45;99020.21;;;21.87;48.13
69127;BME280;56688;50.234;19.292;2022-10-16T10:14:20;99024.23;;;21.91;48.86
69127;BME280;56688;50.234;19.292;2022-10-16T10:16:48;99017.81;;;21.99;48.65
69127;BME280;56688;50.234;19.292;2022-10-16T10:19:18;99010.20;;;22.06;48.26
69127;BME280;56688;50.234;19.292;2022-10-16T10:21:45;99010.76;;;22.13;48.10
69127;BME280;56688;50.234;19.292;2022-10-16T10:24:14;99011.25;;;22.17;47.95
69127;BME280;56688;50.234;19.292;2022-10-16T10:29:25;99015.16;;;22.28;47.86
69127;BME280;56688;50.234;19.292;2022-10-16T10:32:13;99014.98;;;22.39;48.10
69127;BME280;56688;50.234;19.292;2022-10-16T10:40:15;99018.41;;;22.48;48.03
69127;BME280;56688;50.234;19.292;2022-10-16T10:42:53;99019.14;;;22.33;48.24
69127;BME280;56688;50.234;19.292;2022-10-16T10:45:27;99012.54;;;22.20;47.88
69127;BME280;56688;50.234;19.292;2022-10-16T10:50:41;99016.86;;;22.04;48.23
69127;BME280;56688;50.234;19.292;2022-10-16T10:53:18;99017.94;;;21.92;48.95
69127;BME280;56688;50.234;19.292;2022-10-16T10:55:51;99023.02;;;21.80;49.16
69127;BME280;56688;50.234;19.292;2022-10-16T11:01:28;99018.34;;;21.43;48.54
69127;BME280;56688;50.234;19.292;2022-10-16T11:07:02;99013.41;;;21.11;49.84
69127;BME280;56688;50.234;19.292;2022-10-16T11:09:41;99012.27;;;20.99;49.48
69127;BME280;56688;50.234;19.292;2022-10-16T11:12:20;99010.61;;;20.89;50.20
69127;BME280;56688;50.234;19.292;2022-10-16T11:17:32;99013.57;;;20.82;50.29
69127;BME280;56688;50.234;19.292;2022-10-16T11:22:47;99013.85;;;20.91;49.77
69127;BME280;56688;50.234;19.292;2022-10-16T11:27:51;99011.02;;;21.00;50.10
69127;BME280;56688;50.234;19.292;2022-10-16T11:30:24;99012.23;;;21.06;50.33
69127;BME280;56688;50.234;19.292;2022-10-16T11:35:32;99013.18;;;21.14;49.08
69127;BME280;56688;50.234;19.292;2022-10-16T11:38:02;99016.23;;;21.14;48.21
69127;BME280;56688;50.234;19.292;2022-10-16T11:40:32;99018.17;;;21.10;48.84
69127;BME280;56688;50.234;19.292;2022-10-16T11:43:06;99021.51;;;21.14;49.78
69127;BME280;56688;50.234;19.292;2022-10-16T11:45:42;99014.85;;;21.23;49.15
69127;BME280;56688;50.234;19.292;2022-10-16T11:48:21;99018.26;;;21.21;48.73
69127;BME280;56688;50.234;19.292;2022-10-16T11:50:53;99018.73;;;21.20;48.37
69127;BME280;56688;50.234;19.292;2022-10-16T11:55:55;99008.19;;;21.26;48.33
69127;BME280;56688;50.234;19.292;2022-10-16T11:58:28;99010.55;;;21.33;48.19
69127;BME280;56688;50.234;19.292;2022-10-16T12:01:17;99013.66;;;21.48;48.41
69127;BME280;56688;50.234;19.292;2022-10-16T12:06:47;99010.67;;;21.87;47.77
69127;BME280;56688;50.234;19.292;2022-10-16T12:09:23;99011.75;;;22.23;46.92
69127;BME280;56688;50.234;19.292;2022-10-16T12:11:51;99014.16;;;22.66;46.72
69127;BME280;56688;50.234;19.292;2022-10-16T12:14:21;99014.36;;;23.10;44.93
69127;BME280;56688;50.234;19.292;2022-10-16T12:19:18;99013.64;;;24.15;42.78
69127;BME280;56688;50.234;19.292;2022-10-16T12:21:45;99008.94;;;24.63;41.55
69127;BME280;56688;50.234;19.292;2022-10-16T12:24:36;99012.90;;;25.10;40.96
69127;BME280;56688;50.234;19.292;2022-10-16T12:27:18;99014.21;;;25.35;40.59
69127;BME280;56688;50.234;19.292;2022-10-16T12:29:47;99015.13;;;25.30;40.21
69127;BME280;56688;50.234;19.292;2022-10-16T12:35:29;99027.17;;;24.61;40.59
69127;BME280;56688;50.234;19.292;2022-10-16T12:38:06;99024.86;;;24.20;41.05
69127;BME280;56688;50.234;19.292;2022-10-16T12:40:35;99027.60;;;23.96;41.75
69127;BME280;56688;50.234;19.292;2022-10-16T12:43:13;99023.41;;;23.91;41.72
69127;BME280;56688;50.234;19.292;2022-10-16T12:46:05;99026.50;;;23.94;42.10
69127;BME280;56688;50.234;19.292;2022-10-16T12:48:32;99028.11;;;23.98;42.40
69127;BME280;56688;50.234;19.292;2022-10-16T12:51:24;99029.25;;;24.42;42.33
69127;BME280;56688;50.234;19.292;2022-10-16T13:10:28;99036.55;;;25.55;39.46
69127;BME280;56688;50.234;19.292;2022-10-16T13:13:20;99039.16;;;25.37;39.17
69127;BME280;56688;50.234;19.292;2022-10-16T13:16:02;99035.77;;;24.93;39.84
69127;BME280;56688;50.234;19.292;2022-10-16T13:18:36;99042.90;;;24.60;40.62
69127;BME280;56688;50.234;19.292;2022-10-16T13:26:43;99038.20;;;23.91;43.32
69127;BME280;56688;50.234;19.292;2022-10-16T13:29:13;99044.31;;;23.83;43.03
69127;BME280;56688;50.234;19.292;2022-10-16T13:31:42;99045.20;;;23.64;43.21
69127;BME280;56688;50.234;19.292;2022-10-16T13:34:14;99045.44;;;23.56;44.52
69127;BME280;56688;50.234;19.292;2022-10-16T13:36:46;99049.37;;;23.55;43.99
69127;BME280;56688;50.234;19.292;2022-10-16T13:39:15;99045.23;;;23.75;43.88
69127;BME280;56688;50.234;19.292;2022-10-16T13:41:44;99040.98;;;24.06;43.51
69127;BME280;56688;50.234;19.292;2022-10-16T13:44:14;99046.54;;;24.38;42.76
69127;BME280;56688;50.234;19.292;2022-10-16T13:46:42;99044.77;;;24.90;41.93
69127;BME280;56688;50.234;19.292;2022-10-16T13:49:15;99043.54;;;25.37;40.93
69127;BME280;56688;50.234;19.292;2022-10-16T13:51:56;99050.02;;;25.59;39.89
69127;BME280;56688;50.234;19.292;2022-10-16T13:54:24;99050.23;;;25.59;39.88
69127;BME280;56688;50.234;19.292;2022-10-16T13:56:51;99051.84;;;25.34;40.37
69127;BME280;56688;50.234;19.292;2022-10-16T13:59:36;99052.33;;;24.81;41.28
69127;BME280;56688;50.234;19.292;2022-10-16T14:04:48;99035.60;;;24.07;42.78
69127;BME280;56688;50.234;19.292;2022-10-16T14:07:23;99027.03;;;23.79;43.33
69127;BME280;56688;50.234;19.292;2022-10-16T14:09:52;99027.59;;;23.95;43.28
69127;BME280;56688;50.234;19.292;2022-10-16T14:12:22;99029.84;;;24.30;43.21
69127;BME280;56688;50.234;19.292;2022-10-16T14:14:55;99027.15;;;24.68;42.34
69127;BME280;56688;50.234;19.292;2022-10-16T14:17:25;99029.55;;;24.88;41.53
69127;BME280;56688;50.234;19.292;2022-10-16T14:19:58;99025.48;;;24.95;41.55
69127;BME280;56688;50.234;19.292;2022-10-16T14:25:00;99028.70;;;24.97;41.53
69127;BME280;56688;50.234;19.292;2022-10-16T14:27:32;99034.83;;;25.05;41.47
69127;BME280;56688;50.234;19.292;2022-10-16T14:30:14;99041.10;;;25.17;41.28
69127;BME280;56688;50.234;19.292;2022-10-16T14:32:53;99043.06;;;25.16;41.15
69127;BME280;56688;50.234;19.292;2022-10-16T14:35:25;99051.91;;;25.10;41.11
69127;BME280;56688;50.234;19.292;2022-10-16T14:37:54;99066.00;;;24.94;41.25
69127;BME280;56688;50.234;19.292;2022-10-16T14:40:25;99070.95;;;24.75;41.41